sensor_id;sensor_type;location;lat;lon;timestamp;temperature;humidity
69206;SHT30;56319;48.920;2.332;2023-11-19T17:52:06;29.96;30.18
69206;SHT30;56319;48.920;2.332;2023-11-19T17:54:31;29.95;30.13
69206;SHT30;56319;48.920;2.332;2023-11-19T17:56:57;29.95;30.19
69206;SHT30;56319;48.920;2.332;2023-11-19T17:59:22;29.97;30.16
69206;SHT30;56319;48.920;2.332;2023-11-19T18:01:52;29.95;30.19
69206;SHT30;56319;48.920;2.332;2023-11-19T18:04:23;29.95;30.19
69206;SHT30;56319;48.920;2.332;2023-11-19T18:06:49;29.96;30.22
69206;SHT30;56319;48.920;2.332;2023-11-19T18:09:14;29.96;30.20
69206;SHT30;56319;48.920;2.332;2023-11-19T18:11:40;29.92;30.20
69206;SHT30;56319;48.920;2.332;2023-11-19T18:14:07;29.95;30.22
69206;SHT30;56319;48.920;2.332;2023-11-19T18:16:35;29.93;30.28
69206;SHT30;56319;48.920;2.332;2023-11-19T18:19:00;29.93;30.24
69206;SHT30;56319;48.920;2.332;2023-11-19T18:21:26;29.96;30.29
69206;SHT30;56319;48.920;2.332;2023-11-19T18:23:52;29.96;30.26
69206;SHT30;56319;48.920;2.332;2023-11-19T18:26:17;29.93;30.27
69206;SHT30;56319;48.920;2.332;2023-11-19T18:28:43;29.96;30.28
69206;SHT30;56319;48.920;2.332;2023-11-19T18:31:08;29.96;30.31
69206;SHT30;56319;48.920;2.332;2023-11-19T18:33:34;29.92;30.34
69206;SHT30;56319;48.920;2.332;2023-11-19T18:36:02;29.95;30.31
69206;SHT30;56319;48.920;2.332;2023-11-19T18:38:29;29.95;30.29
69206;SHT30;56319;48.920;2.332;2023-11-19T18:40:54;29.93;30.34
69206;SHT30;56319;48.920;2.332;2023-11-19T18:43:21;29.93;30.34
69206;SHT30;56319;48.920;2.332;2023-11-19T18:45:46;29.92;30.32
69206;SHT30;56319;48.920;2.332;2023-11-19T18:48:12;29.92;30.34
69206;SHT30;56319;48.920;2.332;2023-11-19T18:50:38;29.90;30.35
69206;SHT30;56319;48.920;2.332;2023-11-19T18:53:04;29.93;30.34
69206;SHT30;56319;48.920;2.332;2023-11-19T18:55:29;29.93;30.40
69206;SHT30;56319;48.920;2.332;2023-11-19T18:57:55;29.90;30.40
69206;SHT30;56319;48.920;2.332;2023-11-19T19:00:20;29.92;30.38
69206;SHT30;56319;48.920;2.332;2023-11-19T19:02:46;29.90;30.41
69206;SHT30;56319;48.920;2.332;2023-11-19T19:05:14;29.92;30.40
69206;SHT30;56319;48.920;2.332;2023-11-19T19:07:42;29.90;30.42
69206;SHT30;56319;48.920;2.332;2023-11-19T19:10:09;29.90;30.42
69206;SHT30;56319;48.920;2.332;2023-11-19T19:12:40;29.88;30.41
69206;SHT30;56319;48.920;2.332;2023-11-19T19:15:09;29.89;30.51
69206;SHT30;56319;48.920;2.332;2023-11-19T19:17:38;29.90;30.44
69206;SHT30;56319;48.920;2.332;2023-11-19T19:20:04;29.89;30.50
69206;SHT30;56319;48.920;2.332;2023-11-19T19:22:30;29.88;30.56
69206;SHT30;56319;48.920;2.332;2023-11-19T19:24:55;29.88;30.47
69206;SHT30;56319;48.920;2.332;2023-11-19T19:27:22;29.83;30.47
69206;SHT30;56319;48.920;2.332;2023-11-19T19:29:47;29.85;30.56
69206;SHT30;56319;48.920;2.332;2023-11-19T19:32:13;29.82;30.57
69206;SHT30;56319;48.920;2.332;2023-11-19T19:34:39;29.85;30.52
69206;SHT30;56319;48.920;2.332;2023-11-19T19:37:04;29.83;30.52
69206;SHT30;56319;48.920;2.332;2023-11-19T19:39:31;29.82;30.57
69206;SHT30;56319;48.920;2.332;2023-11-19T19:41:57;29.82;30.60
69206;SHT30;56319;48.920;2.332;2023-11-19T19:44:23;29.82;30.57
69206;SHT30;56319;48.920;2.332;2023-11-19T19:46:50;29.82;30.61
69206;SHT30;56319;48.920;2.332;2023-11-19T19:49:16;29.80;30.61
69206;SHT30;56319;48.920;2.332;2023-11-19T19:51:41;29.82;30.61
69206;SHT30;56319;48.920;2.332;2023-11-19T19:54:08;29.83;30.66
69206;SHT30;56319;48.920;2.332;2023-11-19T19:56:33;29.79;30.66
69206;SHT30;56319;48.920;2.332;2023-11-19T19:58:59;29.79;30.63
69206;SHT30;56319;48.920;2.332;2023-11-19T20:01:25;29.79;30.68
69206;SHT30;56319;48.920;2.332;2023-11-19T20:03:51;29.78;30.66
69206;SHT30;56319;48.920;2.332;2023-11-19T20:06:17;29.80;30.67
69206;SHT30;56319;48.920;2.332;2023-11-19T20:08:47;29.79;30.67
69206;SHT30;56319;48.920;2.332;2023-11-19T20:11:14;29.78;30.72
69206;SHT30;56319;48.920;2.332;2023-11-19T20:13:40;29.80;30.70
69206;SHT30;56319;48.920;2.332;2023-11-19T20:16:06;29.78;30.74
69206;SHT30;56319;48.920;2.332;2023-11-19T20:18:32;29.80;30.71
69206;SHT30;56319;48.920;2.332;2023-11-19T20:20:58;29.78;30.74
69206;SHT30;56319;48.920;2.332;2023-11-19T20:23:23;29.78;30.72
69206;SHT30;56319;48.920;2.332;2023-11-19T20:25:52;29.79;30.73
69206;SHT30;56319;48.920;2.332;2023-11-19T20:28:17;29.79;30.76
69206;SHT30;56319;48.920;2.332;2023-11-19T20:30:43;29.79;30.76
69206;SHT30;56319;48.920;2.332;2023-11-19T20:33:09;29.76;30.73
69206;SHT30;56319;48.920;2.332;2023-11-19T20:35:35;29.79;30.79
69206;SHT30;56319;48.920;2.332;2023-11-19T20:38:02;29.80;30.82
69206;SHT30;56319;48.920;2.332;2023-11-19T20:40:29;29.78;30.80
69206;SHT30;56319;48.920;2.332;2023-11-19T20:42:54;29.78;30.78
69206;SHT30;56319;48.920;2.332;2023-11-19T20:45:20;29.78;30.79
69206;SHT30;56319;48.920;2.332;2023-11-19T20:47:47;29.78;30.79
69206;SHT30;56319;48.920;2.332;2023-11-19T20:50:14;29.79;30.83
69206;SHT30;56319;48.920;2.332;2023-11-19T20:52:40;29.75;30.85
69206;SHT30;56319;48.920;2.332;2023-11-19T20:55:06;29.76;30.87
69206;SHT30;56319;48.920;2.332;2023-11-19T20:57:33;29.76;30.78
69206;SHT30;56319;48.920;2.332;2023-11-19T20:59:58;29.76;30.87
69206;SHT30;56319;48.920;2.332;2023-11-19T21:02:24;29.76;30.78
69206;SHT30;56319;48.920;2.332;2023-11-19T21:04:49;29.76;30.91
69206;SHT30;56319;48.920;2.332;2023-11-19T21:07:15;29.76;30.88
69206;SHT30;56319;48.920;2.332;2023-11-19T21:09:40;29.75;30.88
69206;SHT30;56319;48.920;2.332;2023-11-19T21:12:06;29.73;30.89
69206;SHT30;56319;48.920;2.332;2023-11-19T21:14:34;29.75;30.86
69206;SHT30;56319;48.920;2.332;2023-11-19T21:17:00;29.76;30.88
69206;SHT30;56319;48.920;2.332;2023-11-19T21:19:26;29.75;30.86
69206;SHT30;56319;48.920;2.332;2023-11-19T21:21:52;29.73;30.89
69206;SHT30;56319;48.920;2.332;2023-11-19T21:24:19;29.73;30.92
69206;SHT30;56319;48.920;2.332;2023-11-19T21:26:44;29.72;30.86
69206;SHT30;56319;48.920;2.332;2023-11-19T21:29:11;29.71;30.88
69206;SHT30;56319;48.920;2.332;2023-11-19T21:31:38;29.75;30.94
69206;SHT30;56319;48.920;2.332;2023-11-19T21:34:04;29.75;30.88
69206;SHT30;56319;48.920;2.332;2023-11-19T21:36:31;29.72;30.86
69206;SHT30;56319;48.920;2.332;2023-11-19T21:38:56;29.69;30.90
69206;SHT30;56319;48.920;2.332;2023-11-19T21:41:22;29.73;30.90
69206;SHT30;56319;48.920;2.332;2023-11-19T21:43:47;29.72;30.89
69206;SHT30;56319;48.920;2.332;2023-11-19T21:46:13;29.72;30.94
69206;SHT30;56319;48.920;2.332;2023-11-19T21:48:40;29.72;30.86
69206;SHT30;56319;48.920;2.332;2023-11-19T21:51:07;29.71;30.85
69206;SHT30;56319;48.920;2.332;2023-11-19T21:53:34;29.72;30.89
69206;SHT30;56319;48.920;2.332;2023-11-19T21:56:00;29.71;30.90
69206;SHT30;56319;48.920;2.332;2023-11-19T21:58:25;29.71;30.95
69206;SHT30;56319;48.920;2.332;2023-11-19T22:00:52;29.72;30.92
69206;SHT30;56319;48.920;2.332;2023-11-19T22:03:17;29.71;30.95
69206;SHT30;56319;48.920;2.332;2023-11-19T22:05:43;29.71;30.88
69206;SHT30;56319;48.920;2.332;2023-11-19T22:08:09;29.72;30.89
69206;SHT30;56319;48.920;2.332;2023-11-19T22:10:35;29.71;30.93
69206;SHT30;56319;48.920;2.332;2023-11-19T22:13:02;29.68;30.94
69206;SHT30;56319;48.920;2.332;2023-11-19T22:15:28;29.69;30.89
69206;SHT30;56319;48.920;2.332;2023-11-19T22:17:54;29.69;30.92
69206;SHT30;56319;48.920;2.332;2023-11-19T22:20:20;29.68;30.93
69206;SHT30;56319;48.920;2.332;2023-11-19T22:22:45;29.68;30.95
69206;SHT30;56319;48.920;2.332;2023-11-19T22:25:12;29.69;30.90
69206;SHT30;56319;48.920;2.332;2023-11-19T22:27:37;29.66;30.95
69206;SHT30;56319;48.920;2.332;2023-11-19T22:30:03;29.68;30.95
69206;SHT30;56319;48.920;2.332;2023-11-19T22:32:29;29.68;30.86
69206;SHT30;56319;48.920;2.332;2023-11-19T22:34:54;29.68;30.92
69206;SHT30;56319;48.920;2.332;2023-11-19T22:37:20;29.68;30.90
69206;SHT30;56319;48.920;2.332;2023-11-19T22:39:45;29.66;30.92
69206;SHT30;56319;48.920;2.332;2023-11-19T22:42:11;29.65;30.93
69206;SHT30;56319;48.920;2.332;2023-11-19T22:44:37;29.66;30.92
69206;SHT30;56319;48.920;2.332;2023-11-19T22:47:04;29.65;30.90
69206;SHT30;56319;48.920;2.332;2023-11-19T22:49:30;29.65;30.90
69206;SHT30;56319;48.920;2.332;2023-11-19T22:51:56;29.63;30.94
69206;SHT30;56319;48.920;2.332;2023-11-19T22:54:22;29.66;30.93
69206;SHT30;56319;48.920;2.332;2023-11-19T22:56:48;29.63;30.91
69206;SHT30;56319;48.920;2.332;2023-11-19T22:59:14;29.66;30.91
69206;SHT30;56319;48.920;2.332;2023-11-19T23:01:39;29.65;30.96
69206;SHT30;56319;48.920;2.332;2023-11-19T23:04:06;29.63;30.92
69206;SHT30;56319;48.920;2.332;2023-11-19T23:06:33;29.66;30.93
69206;SHT30;56319;48.920;2.332;2023-11-19T23:08:58;29.63;30.94
69206;SHT30;56319;48.920;2.332;2023-11-19T23:11:24;29.63;30.91
69206;SHT30;56319;48.920;2.332;2023-11-19T23:13:49;29.65;30.86
69206;SHT30;56319;48.920;2.332;2023-11-19T23:16:16;29.65;30.91
69206;SHT30;56319;48.920;2.332;2023-11-19T23:18:43;29.65;30.88
69206;SHT30;56319;48.920;2.332;2023-11-19T23:21:09;29.66;30.88
69206;SHT30;56319;48.920;2.332;2023-11-19T23:23:35;29.63;30.91
69206;SHT30;56319;48.920;2.332;2023-11-19T23:26:02;29.65;30.88
69206;SHT30;56319;48.920;2.332;2023-11-19T23:28:27;29.63;30.88
69206;SHT30;56319;48.920;2.332;2023-11-19T23:30:54;29.63;30.88
69206;SHT30;56319;48.920;2.332;2023-11-19T23:33:19;29.65;30.93
69206;SHT30;56319;48.920;2.332;2023-11-19T23:35:45;29.63;30.87
69206;SHT30;56319;48.920;2.332;2023-11-19T23:38:11;29.65;30.94
69206;SHT30;56319;48.920;2.332;2023-11-19T23:40:37;29.63;30.90
69206;SHT30;56319;48.920;2.332;2023-11-19T23:43:02;29.62;30.91
69206;SHT30;56319;48.920;2.332;2023-11-19T23:45:29;29.63;30.87
69206;SHT30;56319;48.920;2.332;2023-11-19T23:47:55;29.62;30.85
69206;SHT30;56319;48.920;2.332;2023-11-19T23:50:21;29.62;30.93
69206;SHT30;56319;48.920;2.332;2023-11-19T23:52:48;29.62;30.93
69206;SHT30;56319;48.920;2.332;2023-11-19T23:55:15;29.62;30.91
69206;SHT30;56319;48.920;2.332;2023-11-19T23:57:40;29.61;30.90
